sensor_id;sensor_type;location;lat;lon;timestamp;P1;durP1;ratioP1;P2;durP2;ratioP2
47021;SDS011;32779;52.264;6.154;2022-08-24T00:02:05;9.65;;;6.47;;
47021;SDS011;32779;52.264;6.154;2022-08-24T00:04:31;8.18;;;6.18;;
47021;SDS011;32779;52.264;6.154;2022-08-24T00:06:58;8.10;;;6.53;;
47021;SDS011;32779;52.264;6.154;2022-08-24T00:09:24;10.75;;;5.97;;
47021;SDS011;32779;52.264;6.154;2022-08-24T00:11:50;9.85;;;6.20;;
47021;SDS011;32779;52.264;6.154;2022-08-24T00:14:15;9.73;;;7.40;;
47021;SDS011;32779;52.264;6.154;2022-08-24T00:16:42;10.95;;;7.20;;
47021;SDS011;32779;52.264;6.154;2022-08-24T00:19:07;12.25;;;7.18;;
47021;SDS011;32779;52.264;6.154;2022-08-24T00:21:35;11.45;;;7.38;;
47021;SDS011;32779;52.264;6.154;2022-08-24T00:24:00;11.80;;;8.90;;
47021;SDS011;32779;52.264;6.154;2022-08-24T00:26:26;11.77;;;7.93;;
47021;SDS011;32779;52.264;6.154;2022-08-24T00:28:51;13.10;;;7.80;;
47021;SDS011;32779;52.264;6.154;2022-08-24T00:31:17;10.20;;;7.05;;
47021;SDS011;32779;52.264;6.154;2022-08-24T00:33:43;10.75;;;7.80;;
47021;SDS011;32779;52.264;6.154;2022-08-24T00:36:09;11.90;;;8.00;;
47021;SDS011;32779;52.264;6.154;2022-08-24T00:38:34;9.55;;;7.63;;
47021;SDS011;32779;52.264;6.154;2022-08-24T00:41:01;10.30;;;7.10;;
47021;SDS011;32779;52.264;6.154;2022-08-24T00:43:27;8.70;;;7.25;;
47021;SDS011;32779;52.264;6.154;2022-08-24T00:46:08;12.07;;;9.23;;
47021;SDS011;32779;52.264;6.154;2022-08-24T00:48:40;10.68;;;8.00;;
47021;SDS011;32779;52.264;6.154;2022-08-24T00:51:15;12.38;;;8.88;;
47021;SDS011;32779;52.264;6.154;2022-08-24T00:53:48;10.73;;;7.68;;
47021;SDS011;32779;52.264;6.154;2022-08-24T00:56:38;18.65;;;9.32;;
47021;SDS011;32779;52.264;6.154;2022-08-24T00:59:18;11.27;;;9.32;;
47021;SDS011;32779;52.264;6.154;2022-08-24T01:01:50;10.25;;;8.63;;
47021;SDS011;32779;52.264;6.154;2022-08-24T01:04:19;14.48;;;8.93;;
47021;SDS011;32779;52.264;6.154;2022-08-24T01:06:53;12.23;;;9.23;;
47021;SDS011;32779;52.264;6.154;2022-08-24T01:09:20;12.75;;;9.10;;
47021;SDS011;32779;52.264;6.154;2022-08-24T01:11:46;13.57;;;9.60;;
47021;SDS011;32779;52.264;6.154;2022-08-24T01:14:13;13.63;;;9.25;;
47021;SDS011;32779;52.264;6.154;2022-08-24T01:16:41;10.75;;;9.20;;
47021;SDS011;32779;52.264;6.154;2022-08-24T01:19:34;13.15;;;9.35;;
47021;SDS011;32779;52.264;6.154;2022-08-24T01:24:58;12.38;;;8.75;;
47021;SDS011;32779;52.264;6.154;2022-08-24T01:27:24;13.05;;;8.75;;
47021;SDS011;32779;52.264;6.154;2022-08-24T01:29:50;13.00;;;9.85;;
47021;SDS011;32779;52.264;6.154;2022-08-24T01:32:18;11.15;;;8.35;;
47021;SDS011;32779;52.264;6.154;2022-08-24T01:34:46;13.00;;;8.88;;
47021;SDS011;32779;52.264;6.154;2022-08-24T01:37:12;15.38;;;9.60;;
47021;SDS011;32779;52.264;6.154;2022-08-24T01:39:45;14.00;;;10.07;;
47021;SDS011;32779;52.264;6.154;2022-08-24T01:42:12;14.90;;;9.30;;
47021;SDS011;32779;52.264;6.154;2022-08-24T01:44:38;11.63;;;8.70;;
47021;SDS011;32779;52.264;6.154;2022-08-24T01:47:07;12.13;;;8.93;;
47021;SDS011;32779;52.264;6.154;2022-08-24T01:49:36;14.13;;;9.32;;
47021;SDS011;32779;52.264;6.154;2022-08-24T01:52:04;12.43;;;9.25;;
47021;SDS011;32779;52.264;6.154;2022-08-24T01:54:32;15.68;;;10.25;;
47021;SDS011;32779;52.264;6.154;2022-08-24T01:56:58;11.30;;;9.02;;
47021;SDS011;32779;52.264;6.154;2022-08-24T01:59:24;13.38;;;9.60;;
47021;SDS011;32779;52.264;6.154;2022-08-24T02:02:13;11.90;;;10.18;;
47021;SDS011;32779;52.264;6.154;2022-08-24T02:04:43;12.98;;;9.50;;
47021;SDS011;32779;52.264;6.154;2022-08-24T02:07:09;16.38;;;10.30;;
47021;SDS011;32779;52.264;6.154;2022-08-24T02:09:35;16.35;;;9.93;;
47021;SDS011;32779;52.264;6.154;2022-08-24T02:12:01;13.60;;;9.57;;
47021;SDS011;32779;52.264;6.154;2022-08-24T02:14:28;12.95;;;8.82;;
47021;SDS011;32779;52.264;6.154;2022-08-24T02:16:54;12.88;;;9.48;;
47021;SDS011;32779;52.264;6.154;2022-08-24T02:19:21;11.68;;;8.55;;
47021;SDS011;32779;52.264;6.154;2022-08-24T02:21:47;15.15;;;9.15;;
47021;SDS011;32779;52.264;6.154;2022-08-24T02:24:13;12.95;;;9.13;;
47021;SDS011;32779;52.264;6.154;2022-08-24T02:26:38;12.63;;;9.75;;
47021;SDS011;32779;52.264;6.154;2022-08-24T02:29:04;11.68;;;9.20;;
47021;SDS011;32779;52.264;6.154;2022-08-24T02:31:30;14.15;;;8.60;;
47021;SDS011;32779;52.264;6.154;2022-08-24T02:33:55;13.80;;;10.52;;
47021;SDS011;32779;52.264;6.154;2022-08-24T02:36:21;15.32;;;11.00;;
47021;SDS011;32779;52.264;6.154;2022-08-24T02:38:48;17.60;;;10.80;;
47021;SDS011;32779;52.264;6.154;2022-08-24T02:41:13;13.60;;;10.65;;
47021;SDS011;32779;52.264;6.154;2022-08-24T02:46:05;14.85;;;10.57;;
47021;SDS011;32779;52.264;6.154;2022-08-24T02:48:30;15.15;;;9.90;;
47021;SDS011;32779;52.264;6.154;2022-08-24T02:50:56;15.63;;;10.65;;
47021;SDS011;32779;52.264;6.154;2022-08-24T02:55:47;15.02;;;11.13;;
47021;SDS011;32779;52.264;6.154;2022-08-24T02:58:14;13.50;;;10.73;;
47021;SDS011;32779;52.264;6.154;2022-08-24T03:00:42;12.30;;;10.18;;
47021;SDS011;32779;52.264;6.154;2022-08-24T03:03:10;13.77;;;9.85;;
47021;SDS011;32779;52.264;6.154;2022-08-24T03:05:36;16.05;;;10.52;;
47021;SDS011;32779;52.264;6.154;2022-08-24T03:08:03;12.35;;;9.48;;
47021;SDS011;32779;52.264;6.154;2022-08-24T03:10:29;16.05;;;10.13;;
47021;SDS011;32779;52.264;6.154;2022-08-24T03:12:56;15.27;;;9.52;;
47021;SDS011;32779;52.264;6.154;2022-08-24T03:15:23;17.45;;;10.15;;
47021;SDS011;32779;52.264;6.154;2022-08-24T03:17:49;14.65;;;10.80;;
47021;SDS011;32779;52.264;6.154;2022-08-24T03:20:16;12.68;;;10.30;;
47021;SDS011;32779;52.264;6.154;2022-08-24T03:22:43;19.10;;;11.65;;
47021;SDS011;32779;52.264;6.154;2022-08-24T03:25:11;13.82;;;10.38;;
47021;SDS011;32779;52.264;6.154;2022-08-24T03:27:38;13.45;;;9.65;;
47021;SDS011;32779;52.264;6.154;2022-08-24T03:32:31;12.85;;;10.23;;
47021;SDS011;32779;52.264;6.154;2022-08-24T03:37:22;14.57;;;10.27;;
47021;SDS011;32779;52.264;6.154;2022-08-24T03:39:48;13.32;;;9.57;;
47021;SDS011;32779;52.264;6.154;2022-08-24T03:42:14;14.18;;;9.50;;
47021;SDS011;32779;52.264;6.154;2022-08-24T03:47:06;11.68;;;9.60;;
47021;SDS011;32779;52.264;6.154;2022-08-24T03:49:34;12.70;;;9.38;;
47021;SDS011;32779;52.264;6.154;2022-08-24T03:52:01;11.90;;;9.90;;
47021;SDS011;32779;52.264;6.154;2022-08-24T03:54:27;12.02;;;9.45;;
47021;SDS011;32779;52.264;6.154;2022-08-24T03:59:18;12.98;;;9.90;;
47021;SDS011;32779;52.264;6.154;2022-08-24T04:01:44;14.40;;;10.60;;
47021;SDS011;32779;52.264;6.154;2022-08-24T04:04:09;13.07;;;9.43;;
47021;SDS011;32779;52.264;6.154;2022-08-24T04:06:35;11.57;;;9.20;;
47021;SDS011;32779;52.264;6.154;2022-08-24T04:09:01;12.55;;;9.82;;
47021;SDS011;32779;52.264;6.154;2022-08-24T04:11:28;14.25;;;9.85;;
47021;SDS011;32779;52.264;6.154;2022-08-24T04:13:54;15.00;;;9.55;;
47021;SDS011;32779;52.264;6.154;2022-08-24T04:16:22;16.25;;;10.95;;
47021;SDS011;32779;52.264;6.154;2022-08-24T04:18:49;13.15;;;10.60;;
47021;SDS011;32779;52.264;6.154;2022-08-24T04:23:46;12.38;;;9.88;;
47021;SDS011;32779;52.264;6.154;2022-08-24T04:26:12;16.35;;;10.45;;
47021;SDS011;32779;52.264;6.154;2022-08-24T04:28:39;12.00;;;10.05;;
47021;SDS011;32779;52.264;6.154;2022-08-24T04:31:05;17.85;;;11.05;;
47021;SDS011;32779;52.264;6.154;2022-08-24T04:33:31;13.63;;;10.45;;
47021;SDS011;32779;52.264;6.154;2022-08-24T04:38:22;16.30;;;9.88;;
47021;SDS011;32779;52.264;6.154;2022-08-24T04:40:49;14.07;;;10.35;;
47021;SDS011;32779;52.264;6.154;2022-08-24T04:45:41;12.77;;;9.50;;
47021;SDS011;32779;52.264;6.154;2022-08-24T04:48:10;13.70;;;10.07;;
47021;SDS011;32779;52.264;6.154;2022-08-24T04:50:37;16.13;;;9.93;;
47021;SDS011;32779;52.264;6.154;2022-08-24T04:53:05;14.07;;;9.98;;
47021;SDS011;32779;52.264;6.154;2022-08-24T04:55:32;14.52;;;9.98;;
47021;SDS011;32779;52.264;6.154;2022-08-24T04:58:05;11.90;;;9.55;;
47021;SDS011;32779;52.264;6.154;2022-08-24T05:02:56;14.18;;;9.48;;
47021;SDS011;32779;52.264;6.154;2022-08-24T05:05:21;13.10;;;9.02;;
47021;SDS011;32779;52.264;6.154;2022-08-24T05:10:13;13.55;;;9.63;;
47021;SDS011;32779;52.264;6.154;2022-08-24T05:15:04;13.45;;;9.60;;
47021;SDS011;32779;52.264;6.154;2022-08-24T05:17:30;15.60;;;9.95;;
47021;SDS011;32779;52.264;6.154;2022-08-24T05:22:22;14.57;;;9.97;;
47021;SDS011;32779;52.264;6.154;2022-08-24T05:24:48;13.27;;;9.73;;
47021;SDS011;32779;52.264;6.154;2022-08-24T05:29:40;13.45;;;9.40;;
47021;SDS011;32779;52.264;6.154;2022-08-24T05:32:05;15.43;;;11.13;;
47021;SDS011;32779;52.264;6.154;2022-08-24T05:34:31;13.82;;;11.00;;
47021;SDS011;32779;52.264;6.154;2022-08-24T05:36:57;14.20;;;11.10;;
47021;SDS011;32779;52.264;6.154;2022-08-24T05:39:22;14.57;;;10.18;;
47021;SDS011;32779;52.264;6.154;2022-08-24T05:41:48;13.95;;;10.27;;
47021;SDS011;32779;52.264;6.154;2022-08-24T05:44:15;16.42;;;11.32;;
47021;SDS011;32779;52.264;6.154;2022-08-24T05:46:42;16.77;;;12.70;;
47021;SDS011;32779;52.264;6.154;2022-08-24T05:49:08;19.13;;;12.95;;
47021;SDS011;32779;52.264;6.154;2022-08-24T05:51:35;17.48;;;11.57;;
47021;SDS011;32779;52.264;6.154;2022-08-24T05:54:01;20.15;;;13.23;;
47021;SDS011;32779;52.264;6.154;2022-08-24T05:56:29;25.00;;;13.20;;
47021;SDS011;32779;52.264;6.154;2022-08-24T06:01:23;16.30;;;11.52;;
47021;SDS011;32779;52.264;6.154;2022-08-24T06:03:50;16.98;;;12.68;;
47021;SDS011;32779;52.264;6.154;2022-08-24T06:06:18;16.58;;;12.52;;
47021;SDS011;32779;52.264;6.154;2022-08-24T06:08:46;18.52;;;13.13;;
47021;SDS011;32779;52.264;6.154;2022-08-24T06:11:22;20.52;;;13.93;;
47021;SDS011;32779;52.264;6.154;2022-08-24T06:13:53;17.65;;;13.50;;
47021;SDS011;32779;52.264;6.154;2022-08-24T06:16:21;20.23;;;13.90;;
47021;SDS011;32779;52.264;6.154;2022-08-24T06:18:47;20.98;;;13.75;;
47021;SDS011;32779;52.264;6.154;2022-08-24T06:21:15;17.02;;;13.65;;
47021;SDS011;32779;52.264;6.154;2022-08-24T06:23:43;18.13;;;14.73;;
47021;SDS011;32779;52.264;6.154;2022-08-24T06:26:10;22.77;;;17.67;;
47021;SDS011;32779;52.264;6.154;2022-08-24T06:28:55;23.23;;;16.77;;
47021;SDS011;32779;52.264;6.154;2022-08-24T06:31:22;24.77;;;18.92;;
47021;SDS011;32779;52.264;6.154;2022-08-24T06:33:48;27.92;;;20.17;;
47021;SDS011;32779;52.264;6.154;2022-08-24T06:36:14;27.17;;;20.38;;
47021;SDS011;32779;52.264;6.154;2022-08-24T06:38:39;30.08;;;20.88;;
47021;SDS011;32779;52.264;6.154;2022-08-24T06:41:05;28.10;;;20.33;;
47021;SDS011;32779;52.264;6.154;2022-08-24T06:43:31;27.05;;;21.27;;
47021;SDS011;32779;52.264;6.154;2022-08-24T06:45:57;26.48;;;17.88;;
47021;SDS011;32779;52.264;6.154;2022-08-24T06:48:23;24.42;;;19.52;;
47021;SDS011;32779;52.264;6.154;2022-08-24T06:50:49;28.13;;;19.50;;
47021;SDS011;32779;52.264;6.154;2022-08-24T06:53:16;24.17;;;19.05;;
47021;SDS011;32779;52.264;6.154;2022-08-24T06:55:55;30.10;;;20.85;;
47021;SDS011;32779;52.264;6.154;2022-08-24T06:58:23;26.65;;;19.58;;
47021;SDS011;32779;52.264;6.154;2022-08-24T07:00:50;26.63;;;19.83;;
47021;SDS011;32779;52.264;6.154;2022-08-24T07:03:16;29.38;;;19.42;;
47021;SDS011;32779;52.264;6.154;2022-08-24T07:05:51;23.13;;;18.33;;
47021;SDS011;32779;52.264;6.154;2022-08-24T07:08:21;22.55;;;17.02;;
47021;SDS011;32779;52.264;6.154;2022-08-24T07:10:48;25.33;;;17.13;;
47021;SDS011;32779;52.264;6.154;2022-08-24T07:13:14;22.40;;;17.08;;
47021;SDS011;32779;52.264;6.154;2022-08-24T07:15:40;27.30;;;17.35;;
47021;SDS011;32779;52.264;6.154;2022-08-24T07:18:06;19.77;;;15.88;;
47021;SDS011;32779;52.264;6.154;2022-08-24T07:20:35;23.30;;;16.30;;
47021;SDS011;32779;52.264;6.154;2022-08-24T07:23:02;21.85;;;15.13;;
47021;SDS011;32779;52.264;6.154;2022-08-24T07:25:29;23.33;;;17.42;;
47021;SDS011;32779;52.264;6.154;2022-08-24T07:27:56;21.13;;;15.75;;
47021;SDS011;32779;52.264;6.154;2022-08-24T07:30:24;18.08;;;14.20;;
47021;SDS011;32779;52.264;6.154;2022-08-24T07:32:50;21.73;;;14.98;;
47021;SDS011;32779;52.264;6.154;2022-08-24T07:35:16;22.33;;;14.30;;
47021;SDS011;32779;52.264;6.154;2022-08-24T07:37:42;18.27;;;13.27;;
47021;SDS011;32779;52.264;6.154;2022-08-24T07:40:07;18.13;;;14.27;;
47021;SDS011;32779;52.264;6.154;2022-08-24T07:42:33;15.45;;;11.65;;
47021;SDS011;32779;52.264;6.154;2022-08-24T07:44:59;20.95;;;12.38;;
47021;SDS011;32779;52.264;6.154;2022-08-24T07:47:24;14.88;;;10.48;;
47021;SDS011;32779;52.264;6.154;2022-08-24T07:49:50;14.98;;;11.70;;
47021;SDS011;32779;52.264;6.154;2022-08-24T07:52:16;17.05;;;11.68;;
47021;SDS011;32779;52.264;6.154;2022-08-24T07:54:41;12.60;;;9.95;;
47021;SDS011;32779;52.264;6.154;2022-08-24T07:57:07;17.42;;;10.93;;
47021;SDS011;32779;52.264;6.154;2022-08-24T07:59:33;10.63;;;8.95;;
47021;SDS011;32779;52.264;6.154;2022-08-24T08:01:59;13.32;;;9.30;;
47021;SDS011;32779;52.264;6.154;2022-08-24T08:04:25;16.80;;;9.85;;
47021;SDS011;32779;52.264;6.154;2022-08-24T08:06:51;14.95;;;10.38;;
47021;SDS011;32779;52.264;6.154;2022-08-24T08:09:17;12.45;;;9.55;;
47021;SDS011;32779;52.264;6.154;2022-08-24T08:11:43;14.85;;;9.23;;
47021;SDS011;32779;52.264;6.154;2022-08-24T08:14:09;15.25;;;9.18;;
47021;SDS011;32779;52.264;6.154;2022-08-24T08:16:35;13.23;;;8.52;;
47021;SDS011;32779;52.264;6.154;2022-08-24T08:19:02;9.75;;;7.80;;
47021;SDS011;32779;52.264;6.154;2022-08-24T08:21:27;13.48;;;7.65;;
47021;SDS011;32779;52.264;6.154;2022-08-24T08:24:13;14.13;;;6.10;;
47021;SDS011;32779;52.264;6.154;2022-08-24T08:26:40;9.93;;;6.13;;
47021;SDS011;32779;52.264;6.154;2022-08-24T08:29:06;7.70;;;6.13;;
47021;SDS011;32779;52.264;6.154;2022-08-24T08:31:34;12.63;;;6.40;;
47021;SDS011;32779;52.264;6.154;2022-08-24T08:34:00;9.07;;;4.72;;
47021;SDS011;32779;52.264;6.154;2022-08-24T08:36:26;10.20;;;4.97;;
47021;SDS011;32779;52.264;6.154;2022-08-24T08:38:52;7.95;;;4.80;;
47021;SDS011;32779;52.264;6.154;2022-08-24T08:41:25;5.95;;;4.68;;
47021;SDS011;32779;52.264;6.154;2022-08-24T08:44:12;10.57;;;4.80;;
47021;SDS011;32779;52.264;6.154;2022-08-24T08:47:21;7.25;;;4.47;;
47021;SDS011;32779;52.264;6.154;2022-08-24T08:55:32;5.88;;;3.90;;
47021;SDS011;32779;52.264;6.154;2022-08-24T09:04:08;4.95;;;2.63;;
47021;SDS011;32779;52.264;6.154;2022-08-24T09:12:11;5.88;;;2.40;;
47021;SDS011;32779;52.264;6.154;2022-08-24T09:23:21;3.97;;;2.25;;
47021;SDS011;32779;52.264;6.154;2022-08-24T09:28:37;5.75;;;2.20;;
47021;SDS011;32779;52.264;6.154;2022-08-24T09:54:06;5.00;;;2.13;;
47021;SDS011;32779;52.264;6.154;2022-08-24T09:56:52;4.88;;;2.25;;
47021;SDS011;32779;52.264;6.154;2022-08-24T10:04:44;2.33;;;1.40;;
47021;SDS011;32779;52.264;6.154;2022-08-24T10:07:27;2.28;;;1.52;;
47021;SDS011;32779;52.264;6.154;2022-08-24T10:13:16;2.13;;;1.23;;
47021;SDS011;32779;52.264;6.154;2022-08-24T10:18:37;7.32;;;1.10;;
47021;SDS011;32779;52.264;6.154;2022-08-24T10:24:24;2.78;;;1.13;;
47021;SDS011;32779;52.264;6.154;2022-08-24T10:38:58;1.42;;;1.08;;
47021;SDS011;32779;52.264;6.154;2022-08-24T10:47:59;1.55;;;1.35;;
47021;SDS011;32779;52.264;6.154;2022-08-24T10:53:49;1.17;;;0.98;;
47021;SDS011;32779;52.264;6.154;2022-08-24T10:56:18;2.72;;;1.30;;
47021;SDS011;32779;52.264;6.154;2022-08-24T10:59:13;2.55;;;1.23;;
47021;SDS011;32779;52.264;6.154;2022-08-24T11:02:08;1.98;;;1.13;;
47021;SDS011;32779;52.264;6.154;2022-08-24T11:04:35;3.92;;;1.25;;
47021;SDS011;32779;52.264;6.154;2022-08-24T11:07:03;4.95;;;1.05;;
47021;SDS011;32779;52.264;6.154;2022-08-24T11:09:45;1.65;;;0.90;;
47021;SDS011;32779;52.264;6.154;2022-08-24T11:12:17;5.63;;;1.20;;
47021;SDS011;32779;52.264;6.154;2022-08-24T11:14:48;2.30;;;1.00;;
47021;SDS011;32779;52.264;6.154;2022-08-24T11:17:15;2.55;;;1.10;;
47021;SDS011;32779;52.264;6.154;2022-08-24T11:19:43;2.67;;;1.13;;
47021;SDS011;32779;52.264;6.154;2022-08-24T11:25:14;1.55;;;0.98;;
47021;SDS011;32779;52.264;6.154;2022-08-24T11:27:50;2.58;;;1.20;;
47021;SDS011;32779;52.264;6.154;2022-08-24T11:30:26;6.65;;;1.50;;
47021;SDS011;32779;52.264;6.154;2022-08-24T11:37:56;0.93;;;0.90;;
47021;SDS011;32779;52.264;6.154;2022-08-24T11:40:36;3.15;;;1.20;;
47021;SDS011;32779;52.264;6.154;2022-08-24T11:48:46;1.02;;;1.02;;
47021;SDS011;32779;52.264;6.154;2022-08-24T11:54:15;11.23;;;1.35;;
47021;SDS011;32779;52.264;6.154;2022-08-24T12:02:16;2.75;;;1.20;;
47021;SDS011;32779;52.264;6.154;2022-08-24T12:05:25;2.33;;;1.30;;
47021;SDS011;32779;52.264;6.154;2022-08-24T12:08:02;1.67;;;1.02;;
47021;SDS011;32779;52.264;6.154;2022-08-24T12:10:50;2.45;;;1.15;;
47021;SDS011;32779;52.264;6.154;2022-08-24T12:16:28;1.80;;;1.05;;
47021;SDS011;32779;52.264;6.154;2022-08-24T12:19:12;1.38;;;0.90;;
47021;SDS011;32779;52.264;6.154;2022-08-24T12:21:44;1.70;;;0.90;;
47021;SDS011;32779;52.264;6.154;2022-08-24T12:24:15;1.58;;;1.10;;
47021;SDS011;32779;52.264;6.154;2022-08-24T12:26:50;13.48;;;1.33;;
47021;SDS011;32779;52.264;6.154;2022-08-24T12:40:03;5.18;;;1.20;;
47021;SDS011;32779;52.264;6.154;2022-08-24T12:42:52;1.58;;;0.90;;
47021;SDS011;32779;52.264;6.154;2022-08-24T12:45:28;1.83;;;0.88;;
47021;SDS011;32779;52.264;6.154;2022-08-24T12:51:01;1.23;;;0.73;;
47021;SDS011;32779;52.264;6.154;2022-08-24T12:54:00;1.15;;;0.82;;
47021;SDS011;32779;52.264;6.154;2022-08-24T12:59:31;1.92;;;0.90;;
47021;SDS011;32779;52.264;6.154;2022-08-24T13:02:06;1.80;;;0.80;;
47021;SDS011;32779;52.264;6.154;2022-08-24T13:16:11;2.38;;;0.85;;
47021;SDS011;32779;52.264;6.154;2022-08-24T13:33:17;0.65;;;0.63;;
47021;SDS011;32779;52.264;6.154;2022-08-24T13:44:38;1.52;;;0.80;;
47021;SDS011;32779;52.264;6.154;2022-08-24T13:47:21;5.57;;;0.88;;
47021;SDS011;32779;52.264;6.154;2022-08-24T14:00:50;0.95;;;0.77;;
47021;SDS011;32779;52.264;6.154;2022-08-24T14:03:27;1.13;;;0.80;;
47021;SDS011;32779;52.264;6.154;2022-08-24T14:09:16;2.10;;;0.85;;
47021;SDS011;32779;52.264;6.154;2022-08-24T14:23:32;3.05;;;0.82;;
47021;SDS011;32779;52.264;6.154;2022-08-24T14:34:27;4.28;;;1.00;;
47021;SDS011;32779;52.264;6.154;2022-08-24T14:37:50;2.03;;;0.80;;
47021;SDS011;32779;52.264;6.154;2022-08-24T14:42:37;8.32;;;1.50;;
47021;SDS011;32779;52.264;6.154;2022-08-24T14:45:10;1.02;;;0.68;;
47021;SDS011;32779;52.264;6.154;2022-08-24T14:50:32;1.27;;;0.65;;
47021;SDS011;32779;52.264;6.154;2022-08-24T14:56:08;4.97;;;0.73;;
47021;SDS011;32779;52.264;6.154;2022-08-24T14:58:55;1.65;;;0.80;;
47021;SDS011;32779;52.264;6.154;2022-08-24T15:01:41;2.13;;;0.73;;
47021;SDS011;32779;52.264;6.154;2022-08-24T15:06:55;1.05;;;0.73;;
47021;SDS011;32779;52.264;6.154;2022-08-24T15:09:32;1.30;;;0.57;;
47021;SDS011;32779;52.264;6.154;2022-08-24T15:14:51;0.90;;;0.57;;
47021;SDS011;32779;52.264;6.154;2022-08-24T15:17:22;2.75;;;1.00;;
47021;SDS011;32779;52.264;6.154;2022-08-24T15:20:00;2.17;;;0.90;;
47021;SDS011;32779;52.264;6.154;2022-08-24T15:22:45;3.95;;;0.90;;
47021;SDS011;32779;52.264;6.154;2022-08-24T15:25:35;0.93;;;0.65;;
47021;SDS011;32779;52.264;6.154;2022-08-24T15:28:09;2.65;;;0.85;;
47021;SDS011;32779;52.264;6.154;2022-08-24T15:30:52;3.03;;;0.77;;
47021;SDS011;32779;52.264;6.154;2022-08-24T15:33:30;3.83;;;0.82;;
47021;SDS011;32779;52.264;6.154;2022-08-24T15:38:34;1.13;;;0.90;;
47021;SDS011;32779;52.264;6.154;2022-08-24T15:43:51;2.97;;;0.70;;
47021;SDS011;32779;52.264;6.154;2022-08-24T15:46:25;1.75;;;1.00;;
47021;SDS011;32779;52.264;6.154;2022-08-24T15:49:02;1.90;;;1.10;;
47021;SDS011;32779;52.264;6.154;2022-08-24T15:54:12;4.03;;;0.80;;
47021;SDS011;32779;52.264;6.154;2022-08-24T16:04:51;2.63;;;1.25;;
47021;SDS011;32779;52.264;6.154;2022-08-24T16:07:28;1.25;;;0.70;;
47021;SDS011;32779;52.264;6.154;2022-08-24T16:10:04;1.23;;;0.80;;
47021;SDS011;32779;52.264;6.154;2022-08-24T16:12:36;3.88;;;1.05;;
47021;SDS011;32779;52.264;6.154;2022-08-24T16:15:07;4.20;;;0.90;;
47021;SDS011;32779;52.264;6.154;2022-08-24T16:17:39;3.35;;;0.82;;
47021;SDS011;32779;52.264;6.154;2022-08-24T16:20:11;1.13;;;0.60;;
47021;SDS011;32779;52.264;6.154;2022-08-24T16:23:05;1.02;;;0.80;;
47021;SDS011;32779;52.264;6.154;2022-08-24T16:25:38;2.50;;;1.00;;
47021;SDS011;32779;52.264;6.154;2022-08-24T16:35:59;0.82;;;0.65;;
47021;SDS011;32779;52.264;6.154;2022-08-24T16:38:25;0.70;;;0.70;;
47021;SDS011;32779;52.264;6.154;2022-08-24T16:40:57;2.45;;;0.98;;
47021;SDS011;32779;52.264;6.154;2022-08-24T16:43:25;7.47;;;0.80;;
47021;SDS011;32779;52.264;6.154;2022-08-24T16:45:52;2.75;;;0.90;;
47021;SDS011;32779;52.264;6.154;2022-08-24T16:48:18;2.17;;;0.90;;
47021;SDS011;32779;52.264;6.154;2022-08-24T16:50:44;1.40;;;0.90;;
47021;SDS011;32779;52.264;6.154;2022-08-24T16:53:10;1.30;;;0.82;;
47021;SDS011;32779;52.264;6.154;2022-08-24T16:55:36;2.42;;;0.90;;
47021;SDS011;32779;52.264;6.154;2022-08-24T16:58:02;5.60;;;0.80;;
47021;SDS011;32779;52.264;6.154;2022-08-24T17:00:29;7.63;;;0.80;;
47021;SDS011;32779;52.264;6.154;2022-08-24T17:02:54;0.80;;;0.80;;
47021;SDS011;32779;52.264;6.154;2022-08-24T17:05:20;1.83;;;0.90;;
47021;SDS011;32779;52.264;6.154;2022-08-24T17:07:46;5.97;;;1.00;;
47021;SDS011;32779;52.264;6.154;2022-08-24T17:10:12;2.65;;;1.10;;
47021;SDS011;32779;52.264;6.154;2022-08-24T17:12:39;0.80;;;0.75;;
47021;SDS011;32779;52.264;6.154;2022-08-24T17:15:06;10.90;;;1.65;;
47021;SDS011;32779;52.264;6.154;2022-08-24T17:17:33;1.25;;;0.98;;
47021;SDS011;32779;52.264;6.154;2022-08-24T17:19:59;5.35;;;1.30;;
47021;SDS011;32779;52.264;6.154;2022-08-24T17:22:26;1.10;;;1.10;;
47021;SDS011;32779;52.264;6.154;2022-08-24T17:24:52;4.63;;;1.30;;
47021;SDS011;32779;52.264;6.154;2022-08-24T17:27:18;1.63;;;1.02;;
47021;SDS011;32779;52.264;6.154;2022-08-24T17:29:47;3.67;;;1.08;;
47021;SDS011;32779;52.264;6.154;2022-08-24T17:32:13;1.60;;;1.20;;
47021;SDS011;32779;52.264;6.154;2022-08-24T17:34:38;6.35;;;1.30;;
47021;SDS011;32779;52.264;6.154;2022-08-24T17:37:05;1.35;;;1.13;;
47021;SDS011;32779;52.264;6.154;2022-08-24T17:39:32;1.73;;;1.20;;
47021;SDS011;32779;52.264;6.154;2022-08-24T17:41:58;1.20;;;1.10;;
47021;SDS011;32779;52.264;6.154;2022-08-24T17:44:25;2.42;;;1.27;;
47021;SDS011;32779;52.264;6.154;2022-08-24T17:46:53;2.20;;;1.17;;
47021;SDS011;32779;52.264;6.154;2022-08-24T17:49:22;1.67;;;1.23;;
47021;SDS011;32779;52.264;6.154;2022-08-24T17:51:47;2.35;;;1.40;;
47021;SDS011;32779;52.264;6.154;2022-08-24T17:54:14;1.95;;;1.15;;
47021;SDS011;32779;52.264;6.154;2022-08-24T17:56:40;1.95;;;1.25;;
47021;SDS011;32779;52.264;6.154;2022-08-24T17:59:07;1.95;;;1.15;;
47021;SDS011;32779;52.264;6.154;2022-08-24T18:01:43;3.00;;;1.20;;
47021;SDS011;32779;52.264;6.154;2022-08-24T18:04:10;1.65;;;1.10;;
47021;SDS011;32779;52.264;6.154;2022-08-24T18:06:36;1.40;;;1.30;;
47021;SDS011;32779;52.264;6.154;2022-08-24T18:09:05;5.90;;;2.03;;
47021;SDS011;32779;52.264;6.154;2022-08-24T18:11:32;2.47;;;1.48;;
47021;SDS011;32779;52.264;6.154;2022-08-24T18:13:58;1.23;;;1.10;;
47021;SDS011;32779;52.264;6.154;2022-08-24T18:16:25;1.30;;;1.00;;
47021;SDS011;32779;52.264;6.154;2022-08-24T18:18:52;1.98;;;1.27;;
47021;SDS011;32779;52.264;6.154;2022-08-24T18:21:18;2.58;;;1.17;;
47021;SDS011;32779;52.264;6.154;2022-08-24T18:23:48;2.17;;;1.05;;
47021;SDS011;32779;52.264;6.154;2022-08-24T18:26:17;1.80;;;1.20;;
47021;SDS011;32779;52.264;6.154;2022-08-24T18:28:45;4.70;;;1.20;;
47021;SDS011;32779;52.264;6.154;2022-08-24T18:31:12;5.18;;;1.40;;
47021;SDS011;32779;52.264;6.154;2022-08-24T18:33:38;1.42;;;1.23;;
47021;SDS011;32779;52.264;6.154;2022-08-24T18:36:04;2.13;;;1.38;;
47021;SDS011;32779;52.264;6.154;2022-08-24T18:38:29;1.85;;;1.40;;
47021;SDS011;32779;52.264;6.154;2022-08-24T18:40:55;1.48;;;1.10;;
47021;SDS011;32779;52.264;6.154;2022-08-24T18:43:22;3.33;;;1.48;;
47021;SDS011;32779;52.264;6.154;2022-08-24T18:45:48;8.05;;;1.55;;
47021;SDS011;32779;52.264;6.154;2022-08-24T18:48:14;4.15;;;1.33;;
47021;SDS011;32779;52.264;6.154;2022-08-24T18:50:40;2.75;;;1.15;;
47021;SDS011;32779;52.264;6.154;2022-08-24T18:53:05;2.40;;;1.38;;
47021;SDS011;32779;52.264;6.154;2022-08-24T18:55:31;2.08;;;1.40;;
47021;SDS011;32779;52.264;6.154;2022-08-24T18:57:57;2.85;;;1.30;;
47021;SDS011;32779;52.264;6.154;2022-08-24T19:00:22;2.42;;;1.30;;
47021;SDS011;32779;52.264;6.154;2022-08-24T19:02:48;1.95;;;1.45;;
47021;SDS011;32779;52.264;6.154;2022-08-24T19:05:21;5.22;;;1.42;;
47021;SDS011;32779;52.264;6.154;2022-08-24T19:07:49;2.75;;;1.50;;
47021;SDS011;32779;52.264;6.154;2022-08-24T19:10:18;3.58;;;1.15;;
47021;SDS011;32779;52.264;6.154;2022-08-24T19:12:50;3.05;;;1.23;;
47021;SDS011;32779;52.264;6.154;2022-08-24T19:15:20;1.90;;;1.30;;
47021;SDS011;32779;52.264;6.154;2022-08-24T19:17:45;1.33;;;1.23;;
47021;SDS011;32779;52.264;6.154;2022-08-24T19:20:12;1.98;;;1.00;;
47021;SDS011;32779;52.264;6.154;2022-08-24T19:22:38;4.82;;;1.65;;
47021;SDS011;32779;52.264;6.154;2022-08-24T19:25:04;3.92;;;1.30;;
47021;SDS011;32779;52.264;6.154;2022-08-24T19:27:31;3.05;;;1.30;;
47021;SDS011;32779;52.264;6.154;2022-08-24T19:29:57;1.38;;;1.15;;